W4ZHA Weather Reports


Display with metric or nautical units.
time (UTC)temp
F
wind
direction
speed
MPH
gust
MPH
rain 1hr
in
rain 24hr
in
rain mn
in
humidity
%
barometer
mb
20210801031114 77 209 0.0 0.0 0.00 0.00 0.00 72 1014.8
20210801030615 77 214 0.0 0.0 0.00 0.00 0.00 71 1014.8
20210801030113 77 227 0.0 0.0 0.00 0.00 0.00 69 1014.8
20210801025611 77 227 0.0 0.0 0.00 0.00 0.00 69 1014.8
20210801025111 77 233 0.0 0.0 0.00 0.00 0.00 69 1014.8
20210801024609 77 228 0.0 0.0 0.00 0.00 0.00 67 1014.5
20210801024108 77 234 0.0 0.0 0.00 0.00 0.00 67 1015.1
20210801023607 77 227 0.0 0.0 0.00 0.00 0.00 66 1014.5
20210801023107 77 226 0.0 0.0 0.00 0.00 0.00 66 1014.8
20210801022604 77 206 0.0 0.0 0.00 0.00 0.00 66 1014.5
20210801022103 77 217 0.0 0.0 0.00 0.00 0.00 66 1014.5
20210801021601 79 230 0.0 0.0 0.00 0.00 0.00 65 1014.8
20210801021101 79 253 0.0 0.0 0.00 0.00 0.00 65 1014.5
20210801020559 79 237 0.0 0.0 0.00 0.00 0.00 65 1014.5
20210801020058 79 227 0.0 0.0 0.00 0.00 0.00 63 1014.8
20210801015556 79 228 0.0 0.0 0.00 0.00 0.00 62 1014.8
20210801015055 79 230 0.0 0.0 0.00 0.00 0.00 60 1015.1
20210801014554 79 233 0.0 0.0 0.00 0.00 0.00 60 1015.1
20210801014050 80 227 0.0 0.0 0.00 0.00 0.00 59 1015.1
20210801013545 80 238 0.0 0.0 0.00 0.00 0.00 58 1015.1
20210801013043 80 250 0.0 0.0 0.00 0.00 0.00 59 1015.1
20210801012543 81 232 0.0 0.0 0.00 0.00 0.00 57 1015.5
20210801012041 81 223 0.0 0.0 0.00 0.00 0.00 56 1015.5
20210801011540 81 235 0.0 0.0 0.00 0.00 0.00 56 1015.5
20210801011040 80 250 0.0 0.0 0.00 0.00 0.00 57 1015.5
20210801010538 81 251 0.0 0.0 0.00 0.00 0.00 56 1015.5
20210801010135 81 244 0.0 0.0 0.00 0.00 0.00 56 1015.5
20210801005536 81 246 0.0 0.0 0.00 0.00 0.00 56 1015.5
20210801005032 82 224 0.0 0.0 0.00 0.00 0.00 56 1015.8
20210801004531 82 226 0.0 0.0 0.00 0.00 0.00 55 1015.5
20210801004030 82 223 0.0 0.0 0.00 0.00 0.00 55 1015.5
20210801003530 82 243 0.0 0.0 0.00 0.00 0.00 57 1015.1
20210801003054 83 283 0.0 0.0 0.00 0.00 0.00 56 1015.5
20210801002525 83 254 0.0 0.0 0.00 0.00 0.00 55 1015.5
20210801002025 84 231 0.0 0.0 0.00 0.00 0.00 54 1015.5
20210801001610 84 276 0.0 0.0 0.00 0.00 0.00 53 1015.5
20210801001039 84 276 0.0 0.0 0.00 0.00 0.00 51 1015.5
20210801000605 85 249 0.0 0.0 0.00 0.00 0.00 53 1015.5
20210801000053 86 233 0.0 0.0 0.00 0.00 0.00 51 1015.1
20210731235521 86 223 0.0 0.0 0.00 0.00 0.00 51 1015.5
20210731235016 86 239 0.0 0.0 0.00 0.00 0.00 48 1015.1
20210731234543 87 219 0.0 0.0 0.00 0.00 0.00 48 1015.1
20210731234003 87 265 0.0 0.0 0.00 0.00 0.00 47 1015.5
20210731233502 88 244 0.0 0.0 0.00 0.00 0.00 45 1015.1
20210731232959 89 265 0.0 0.0 0.00 0.00 0.00 44 1014.8
20210731232459 89 233 0.0 0.0 0.00 0.00 0.00 44 1014.8
20210731231957 89 285 1.0 2.0 0.00 0.00 0.00 37 1015.1
20210731231456 90 212 0.0 0.0 0.00 0.00 0.00 35 1014.8
20210731230954 90 268 1.0 2.0 0.00 0.00 0.00 35 1015.1
20210731230452 92 285 0.0 0.0 0.00 0.00 0.00 37 1015.1
20210731225947 93 234 0.0 0.0 0.00 0.00 0.00 37 1014.8
20210731225446 93 259 0.0 0.0 0.00 0.00 0.00 37 1015.1
20210731224947 92 221 0.0 0.0 0.00 0.00 0.00 37 1015.1
20210731224445 92 299 1.0 2.0 0.00 0.00 0.00 37 1015.1
20210731223944 92 239 1.0 2.0 0.00 0.00 0.00 37 1015.1
20210731223443 91 55 3.0 5.0 0.00 0.00 0.00 37 1014.8
20210731222941 93 230 0.0 0.0 0.00 0.00 0.00 37 1015.1
20210731222438 93 179 0.0 0.0 0.00 0.00 0.00 37 1015.5
20210731221937 92 348 2.0 2.0 0.00 0.00 0.00 37 1015.5
20210731221437 91 250 0.0 0.0 0.00 0.00 0.00 37 1015.5
20210731220933 90 150 1.0 2.0 0.00 0.00 0.00 35 1015.5
20210731220431 93 193 0.0 0.0 0.00 0.00 0.00 37 1015.8
20210731215930 91 237 0.0 0.0 0.00 0.00 0.00 35 1015.5
20210731215428 91 51 0.0 2.0 0.00 0.00 0.00 35 1015.5
20210731214928 90 198 1.0 2.0 0.00 0.00 0.00 35 1015.8
20210731214427 90 147 1.0 2.0 0.00 0.00 0.00 35 1015.8
20210731213924 91 182 1.0 2.0 0.00 0.00 0.00 35 1015.8
20210731213424 91 306 1.0 2.0 0.00 0.00 0.00 35 1015.8
20210731212922 90 228 0.0 0.0 0.00 0.00 0.00 35 1015.8
20210731212423 91 296 1.0 2.0 0.00 0.00 0.00 35 1015.8
20210731211921 92 95 2.0 2.0 0.00 0.00 0.00 35 1016.2
20210731211419 93 247 0.0 0.0 0.00 0.00 0.00 37 1015.8
20210731210919 92 246 8.0 10.0 0.00 0.00 0.00 37 1016.2
20210731210417 93 222 1.0 2.0 0.00 0.00 0.00 37 1015.8
20210731205916 92 309 1.0 2.0 0.00 0.00 0.00 37 1015.8
20210731205414 94 64 2.0 2.0 0.00 0.00 0.00 36 1016.2
20210731204913 93 67 5.0 8.0 0.00 0.00 0.00 37 1016.5
20210731204413 93 303 7.0 10.0 0.00 0.00 0.00 37 1016.2
20210731203911 93 223 0.0 2.0 0.00 0.00 0.00 37 1016.5
20210731203410 92 213 0.0 0.0 0.00 0.00 0.00 37 1016.2
20210731202908 93 163 1.0 2.0 0.00 0.00 0.00 36 1016.2
20210731202407 94 46 2.0 2.0 0.00 0.00 0.00 36 1016.2
20210731201902 93 311 2.0 5.0 0.00 0.00 0.00 36 1016.5
20210731201402 93 246 3.0 5.0 0.00 0.00 0.00 36 1016.2
20210731200900 92 271 2.0 2.0 0.00 0.00 0.00 37 1016.5
20210731200359 92 259 2.0 2.0 0.00 0.00 0.00 37 1016.5
20210731195858 91 81 4.0 5.0 0.00 0.00 0.00 35 1016.5
20210731195358 91 126 2.0 2.0 0.00 0.00 0.00 35 1016.5
20210731194857 92 57 3.0 5.0 0.00 0.00 0.00 37 1016.5
20210731194355 93 231 1.0 2.0 0.00 0.00 0.00 36 1016.8
20210731193854 91 184 0.0 0.0 0.00 0.00 0.00 35 1016.8
20210731193353 92 100 1.0 2.0 0.00 0.00 0.00 37 1016.8
20210731192851 92 233 0.0 0.0 0.00 0.00 0.00 37 1016.8
20210731192350 93 272 3.0 5.0 0.00 0.00 0.00 37 1017.2
20210731191847 93 133 0.0 2.0 0.00 0.00 0.00 37 1016.8
20210731191346 92 298 1.0 2.0 0.00 0.00 0.00 37 1017.2
20210731190845 92 271 5.0 5.0 0.00 0.00 0.00 37 1017.2
20210731190346 91 48 4.0 5.0 0.00 0.00 0.00 35 1017.2
20210731185845 92 268 4.0 5.0 0.00 0.00 0.00 37 1017.2
20210731185344 93 266 1.0 2.0 0.00 0.00 0.00 37 1017.5
20210731184843 92 244 0.0 0.0 0.00 0.00 0.00 37 1017.5
20210731184341 91 290 1.0 2.0 0.00 0.00 0.00 37 1017.2
20210731183841 92 345 1.0 2.0 0.00 0.00 0.00 37 1017.5
20210731183340 94 239 1.0 2.0 0.00 0.00 0.00 36 1017.2
20210731182840 94 243 1.0 2.0 0.00 0.00 0.00 36 1017.5
20210731182339 92 132 2.0 2.0 0.00 0.00 0.00 37 1017.5
20210731181837 93 304 2.0 2.0 0.00 0.00 0.00 37 1017.5
20210731181336 93 332 2.0 2.0 0.00 0.00 0.00 37 1017.5
20210731180833 93 222 2.0 2.0 0.00 0.00 0.00 36 1017.5
20210731180332 92 185 0.0 0.0 0.00 0.00 0.00 37 1017.5
20210731175830 92 263 1.0 2.0 0.00 0.00 0.00 37 1017.5
20210731175329 92 292 1.0 2.0 0.00 0.00 0.00 37 1017.5
20210731174827 91 248 0.0 2.0 0.00 0.00 0.00 35 1017.5
20210731174326 90 233 2.0 2.0 0.00 0.00 0.00 35 1017.5
20210731173825 91 196 0.0 0.0 0.00 0.00 0.00 35 1017.2
20210731173324 90 67 2.0 2.0 0.00 0.00 0.00 37 1017.2
20210731172823 91 163 1.0 2.0 0.00 0.00 0.00 35 1017.5
20210731172322 91 353 1.0 2.0 0.00 0.00 0.00 35 1017.5
20210731171820 92 216 0.0 2.0 0.00 0.00 0.00 37 1017.5
20210731171320 90 249 0.0 0.0 0.00 0.00 0.00 40 1017.5
20210731170818 89 215 0.0 0.0 0.00 0.00 0.00 44 1017.5
20210731170313 90 168 1.0 2.0 0.00 0.00 0.00 41 1017.8
20210731165758 89 7 2.0 2.0 0.00 0.00 0.00 44 1017.5
20210731165254 89 159 2.0 2.0 0.00 0.00 0.00 44 1017.2
20210731164754 89 337 1.0 2.0 0.00 0.00 0.00 44 1017.5
20210731164254 88 176 0.0 0.0 0.00 0.00 0.00 45 1017.8
20210731163755 89 55 1.0 2.0 0.00 0.00 0.00 45 1017.5
20210731163254 89 283 2.0 2.0 0.00 0.00 0.00 43 1017.8
20210731162752 90 211 0.0 2.0 0.00 0.00 0.00 43 1017.8
20210731162251 90 254 3.0 5.0 0.00 0.00 0.00 43 1017.8
20210731161750 91 239 1.0 2.0 0.00 0.00 0.00 43 1017.8
20210731161249 90 297 1.0 2.0 0.00 0.00 0.00 44 1017.8
20210731160748 88 228 0.0 2.0 0.00 0.00 0.00 45 1017.5
20210731160247 89 297 2.0 2.0 0.00 0.00 0.00 44 1017.8
20210731155745 90 217 0.0 0.0 0.00 0.00 0.00 43 1017.8
20210731155243 89 243 1.0 2.0 0.00 0.00 0.00 45 1017.8
20210731154742 88 206 1.0 2.0 0.00 0.00 0.00 45 1017.8
20210731154241 87 202 1.0 2.0 0.00 0.00 0.00 49 1017.8
20210731153740 85 140 3.0 5.0 0.00 0.00 0.00 49 1017.8
20210731153238 85 201 2.0 2.0 0.00 0.00 0.00 50 1017.8
20210731152738 87 158 3.0 5.0 0.00 0.00 0.00 48 1018.2
20210731152236 86 163 2.0 5.0 0.00 0.00 0.00 48 1018.2
20210731151734 88 224 1.0 2.0 0.00 0.00 0.00 46 1017.8
20210731151234 87 228 0.0 0.0 0.00 0.00 0.00 48 1017.8
20210731150732 86 239 1.0 2.0 0.00 0.00 0.00 49 1018.2
20210731150231 86 208 0.0 0.0 0.00 0.00 0.00 48 1018.2
20210731145729 86 200 3.0 5.0 0.00 0.00 0.00 51 1017.8
20210731145227 84 252 0.0 0.0 0.00 0.00 0.00 55 1018.2
20210731144726 86 233 1.0 2.0 0.00 0.00 0.00 49 1018.2
20210731144224 85 233 0.0 0.0 0.00 0.00 0.00 51 1017.8
20210731143724 84 259 1.0 2.0 0.00 0.00 0.00 53 1017.8
20210731143223 83 187 2.0 2.0 0.00 0.00 0.00 55 1018.2
20210731142722 84 194 2.0 2.0 0.00 0.00 0.00 53 1018.2
20210731142221 82 220 0.0 0.0 0.00 0.00 0.00 56 1018.2
20210731141720 82 160 0.0 2.0 0.00 0.00 0.00 55 1017.8
20210731141218 82 221 0.0 0.0 0.00 0.00 0.00 57 1018.2
20210731140718 82 221 0.0 0.0 0.00 0.00 0.00 56 1017.8
20210731140218 81 273 0.0 2.0 0.00 0.00 0.00 56 1018.2
20210731135716 80 177 1.0 2.0 0.00 0.00 0.00 57 1018.2
20210731135214 80 229 0.0 0.0 0.00 0.00 0.00 60 1018.2
20210731134714 79 206 0.0 0.0 0.00 0.00 0.00 59 1018.2
20210731134214 79 189 0.0 0.0 0.00 0.00 0.00 60 1018.2
20210731133711 79 213 0.0 0.0 0.00 0.00 0.00 62 1018.2
20210731133238 79 286 0.0 0.0 0.00 0.00 0.00 61 1018.6
20210731132709 79 212 0.0 0.0 0.00 0.00 0.00 64 1018.2
20210731132209 79 224 0.0 0.0 0.00 0.00 0.00 65 1018.6
20210731131708 79 228 0.0 0.0 0.00 0.00 0.00 65 1018.6
20210731131210 79 225 0.0 0.0 0.00 0.00 0.00 65 1018.2
20210731130706 79 221 0.0 0.0 0.00 0.00 0.00 65 1018.2
20210731130204 79 251 0.0 0.0 0.00 0.00 0.00 66 1018.2
20210731125704 79 262 0.0 0.0 0.00 0.00 0.00 67 1018.6
20210731125202 79 242 0.0 0.0 0.00 0.00 0.00 69 1018.2
20210731124701 79 225 0.0 0.0 0.00 0.00 0.00 74 1018.2
20210731124211 77 225 0.0 0.0 0.00 0.00 0.00 76 1018.2
20210731123702 77 239 0.0 0.0 0.00 0.00 0.00 78 1018.6
20210731123248 77 196 0.0 0.0 0.00 0.00 0.00 84 1018.6
20210731122659 77 235 0.0 0.0 0.00 0.00 0.00 90 1018.2
20210731122156 77 252 0.0 0.0 0.00 0.00 0.00 97 1018.2
20210731121652 77 212 0.0 0.0 0.00 0.00 0.00 99 1018.2
20210731121152 77 226 0.0 0.0 0.00 0.00 0.00 99 1018.2
20210731120649 77 211 0.0 0.0 0.00 0.00 0.00 99 1018.2
20210731120147 77 232 0.0 0.0 0.00 0.00 0.00 99 1018.2
20210731115643 77 238 0.0 0.0 0.00 0.00 0.00 99 1017.8
20210731115141 77 230 0.0 0.0 0.00 0.00 0.00 99 1018.2
20210731114638 77 221 0.0 0.0 0.00 0.00 0.00 99 1017.8
20210731114137 77 226 0.0 0.0 0.00 0.00 0.00 99 1018.2
20210731113635 77 223 0.0 0.0 0.00 0.00 0.00 99 1018.2
20210731113133 76 224 0.0 0.0 0.00 0.00 0.00 99 1018.2
20210731112631 76 223 0.0 0.0 0.00 0.00 0.00 99 1018.2
20210731112130 76 222 0.0 0.0 0.00 0.00 0.00 99 1018.2
20210731111629 76 225 0.0 0.0 0.00 0.00 0.00 99 1018.6
20210731111128 76 235 0.0 0.0 0.00 0.00 0.00 99 1018.2
20210731110628 76 235 0.0 0.0 0.00 0.00 0.00 99 1018.2
20210731110126 76 216 0.0 0.0 0.00 0.00 0.00 99 1018.2
20210731105620 76 229 0.0 0.0 0.00 0.00 0.00 99 1018.2
20210731105120 76 231 0.0 0.0 0.00 0.00 0.00 99 1018.6
20210731104619 76 235 0.0 0.0 0.00 0.00 0.00 99 1018.2
20210731104117 76 240 0.0 0.0 0.00 0.00 0.00 99 1018.2
20210731103616 76 235 0.0 0.0 0.00 0.00 0.00 98 1017.8
20210731103116 76 257 0.0 0.0 0.00 0.00 0.00 98 1018.2
20210731102615 76 224 0.0 0.0 0.00 0.00 0.00 97 1017.8
20210731102114 76 230 0.0 0.0 0.00 0.00 0.00 97 1017.8
20210731101611 76 239 0.0 0.0 0.00 0.00 0.00 97 1018.2
20210731101112 76 231 0.0 0.0 0.00 0.00 0.00 96 1017.8
20210731100610 76 234 0.0 0.0 0.00 0.00 0.00 95 1017.8
20210731100108 76 230 0.0 0.0 0.00 0.00 0.00 94 1017.8
20210731095601 76 243 0.0 0.0 0.00 0.00 0.00 94 1017.8
20210731095059 76 264 0.0 0.0 0.00 0.00 0.00 92 1017.5
20210731094558 76 216 0.0 0.0 0.00 0.00 0.00 91 1017.5
20210731094053 76 237 0.0 0.0 0.00 0.00 0.00 90 1017.5
20210731093552 75 235 0.0 0.0 0.00 0.00 0.00 88 1017.5
20210731093050 75 235 0.0 0.0 0.00 0.00 0.00 87 1017.5
20210731092550 75 235 0.0 0.0 0.00 0.00 0.00 86 1017.2
20210731092049 75 235 0.0 0.0 0.00 0.00 0.00 85 1017.5
20210731091548 76 232 0.0 0.0 0.00 0.00 0.00 84 1017.2
20210731091046 76 236 0.0 0.0 0.00 0.00 0.00 82 1017.2
20210731090546 76 228 0.0 0.0 0.00 0.00 0.00 81 1017.2
20210731090045 76 239 0.0 0.0 0.00 0.00 0.00 80 1017.5
20210731085544 76 241 0.0 0.0 0.00 0.00 0.00 80 1017.2
20210731085043 76 255 0.0 0.0 0.00 0.00 0.00 79 1017.2
20210731084535 77 236 0.0 0.0 0.00 0.00 0.00 78 1017.2
20210731084033 77 231 0.0 0.0 0.00 0.00 0.00 78 1017.2
20210731083533 77 261 0.0 0.0 0.00 0.00 0.00 78 1017.2
20210731083031 77 252 0.0 0.0 0.00 0.00 0.00 79 1016.8
20210731082529 77 217 0.0 0.0 0.00 0.00 0.00 80 1016.8
20210731082028 77 205 0.0 0.0 0.00 0.00 0.00 80 1017.2
20210731081525 77 208 0.0 0.0 0.00 0.00 0.00 79 1016.8
20210731081025 77 264 0.0 0.0 0.00 0.00 0.00 79 1016.8
20210731080524 77 284 0.0 0.0 0.00 0.00 0.00 80 1016.5
20210731080021 77 253 0.0 0.0 0.00 0.00 0.00 81 1016.5
20210731075522 77 243 0.0 0.0 0.00 0.00 0.00 83 1016.8
20210731075020 77 219 0.0 0.0 0.00 0.00 0.00 85 1016.5
20210731074519 77 214 0.0 0.0 0.00 0.00 0.00 86 1016.5
20210731074018 77 221 0.0 0.0 0.00 0.00 0.00 86 1016.5
20210731073514 77 218 0.0 0.0 0.00 0.00 0.00 87 1016.5
20210731073012 77 184 0.0 0.0 0.00 0.00 0.00 90 1016.5
20210731072510 77 248 0.0 0.0 0.00 0.00 0.00 90 1016.5
20210731072010 77 230 0.0 0.0 0.00 0.00 0.00 89 1016.8
20210731071510 77 226 0.0 0.0 0.00 0.00 0.00 88 1016.5
20210731071010 77 225 0.0 0.0 0.00 0.00 0.00 88 1016.2
20210731070511 77 227 0.0 0.0 0.00 0.00 0.00 87 1016.2
20210731070019 77 232 0.0 0.0 0.00 0.00 0.00 87 1016.5
20210731065512 77 229 0.0 0.0 0.00 0.00 0.00 86 1016.5
20210731065004 77 228 0.0 0.0 0.00 0.00 0.00 86 1016.8
20210731064502 77 250 0.0 0.0 0.00 0.00 0.00 85 1016.5
20210731064001 77 243 0.0 0.0 0.00 0.00 0.00 85 1016.5
20210731063500 77 231 0.0 0.0 0.00 0.00 0.00 84 1016.8
20210731062957 77 219 0.0 0.0 0.00 0.00 0.00 83 1016.8
20210731062456 77 253 0.0 0.0 0.00 0.00 0.00 82 1016.8
20210731061956 77 248 0.0 0.0 0.00 0.00 0.00 82 1016.8
20210731061455 77 221 0.0 0.0 0.00 0.00 0.00 81 1016.8
20210731060952 77 224 0.0 0.0 0.00 0.00 0.00 80 1017.2
20210731060451 77 232 0.0 0.0 0.00 0.00 0.00 79 1017.2
20210731055950 77 247 0.0 0.0 0.00 0.00 0.00 79 1017.2
20210731055448 77 248 0.0 0.0 0.00 0.00 0.00 79 1017.2
20210731054945 77 244 0.0 0.0 0.00 0.00 0.00 79 1017.5
20210731054445 77 225 0.0 0.0 0.00 0.00 0.00 78 1017.2
20210731053943 77 226 0.0 0.0 0.00 0.00 0.00 77 1017.2
20210731053442 77 223 0.0 0.0 0.00 0.00 0.00 78 1017.5
20210731052941 77 210 0.0 0.0 0.00 0.00 0.00 78 1017.5
20210731052440 77 196 0.0 0.0 0.00 0.00 0.00 77 1017.5
20210731051937 77 166 0.0 0.0 0.00 0.00 0.00 78 1017.8
20210731051437 77 162 0.0 0.0 0.00 0.00 0.00 78 1017.8
20210731050937 77 209 0.0 0.0 0.00 0.00 0.00 78 1017.8
20210731050434 77 231 0.0 0.0 0.00 0.00 0.00 77 1017.8
20210731045934 77 213 0.0 0.0 0.00 0.00 0.00 77 1017.8
20210731045435 77 242 0.0 0.0 0.00 0.00 0.00 77 1017.8
20210731044934 77 216 0.0 0.0 0.00 0.00 0.00 76 1017.8
20210731044431 77 213 0.0 0.0 0.00 0.00 0.00 76 1017.8
20210731043929 77 191 0.0 0.0 0.00 0.00 0.00 75 1017.8
20210731043427 78 265 0.0 0.0 0.00 0.00 0.00 75 1017.8
20210731042926 77 240 0.0 0.0 0.00 0.00 0.00 75 1017.8
20210731042426 79 227 0.0 0.0 0.00 0.00 0.00 75 1017.8
20210731041925 79 234 0.0 0.0 0.00 0.00 0.00 75 1017.8
20210731041424 79 219 0.0 0.0 0.00 0.00 0.00 75 1017.5
20210731040921 79 212 0.0 0.0 0.00 0.00 0.00 75 1017.8
20210731040420 79 215 0.0 0.0 0.00 0.00 0.00 75 1017.8
20210731035918 79 229 0.0 0.0 0.00 0.00 0.00 74 1017.8
20210731035417 79 230 0.0 0.0 0.00 0.00 0.00 73 1017.5
20210731034914 79 228 0.0 0.0 0.00 0.00 0.00 72 1017.8
20210731034413 79 210 0.0 0.0 0.00 0.00 0.00 71 1017.5
20210731033911 79 261 0.0 0.0 0.00 0.00 0.00 72 1017.5
20210731033410 79 215 0.0 0.0 0.00 0.00 0.00 71 1017.5
20210731032908 79 229 0.0 0.0 0.00 0.00 0.00 70 1017.5
20210731032406 79 237 0.0 0.0 0.00 0.00 0.00 70 1017.8
20210731031905 79 197 0.0 0.0 0.00 0.00 0.00 69 1017.5